DAL1099 KTPA-KATL
Flight info
| Callsign | DAL1099 |
|---|---|
| Flight time | 1h 7m |
| Altitude | 35000 |
| Route | BAYPO2 CAMJO LAIRI LARZZ JJEDI4 |
| Aircraft | A321/M-SDE3FGHIRWY/LB1 |
Departure
| Time | 2026-05-06 18:47 |
|---|---|
| Airport | Tampa International Airport (KTPA) |
Arrival
| Time | 2026-05-06 19:55 |
|---|---|
| Airport | Hartsfield Jackson Atlanta International Airport (KATL) |
| Time | Latitude | Longitude | Altitude | Speed | Heading |
|---|---|---|---|---|---|
| 2026-05-06 18:14 | 27.98106 | -82.53810 | 28 ft | 0 kts | 206° |
| 2026-05-06 18:40 | 27.98135 | -82.53794 | 29 ft | 4 kts | 206° |
| 2026-05-06 18:40 | 27.98157 | -82.53779 | 29 ft | 4 kts | 231° |
| 2026-05-06 18:40 | 27.98163 | -82.53765 | 29 ft | 1 kts | 294° |
| 2026-05-06 18:42 | 27.98164 | -82.53766 | 29 ft | 0 kts | 299° |
| 2026-05-06 18:42 | 27.98165 | -82.53767 | 29 ft | 0 kts | 298° |
| 2026-05-06 18:43 | 27.98166 | -82.53770 | 29 ft | 3 kts | 297° |
| 2026-05-06 18:43 | 27.98192 | -82.53834 | 28 ft | 13 kts | 294° |
| 2026-05-06 18:43 | 27.98212 | -82.53935 | 27 ft | 13 kts | 301° |
| 2026-05-06 18:43 | 27.98303 | -82.53962 | 27 ft | 14 kts | 2° |
| 2026-05-06 18:44 | 27.98390 | -82.53959 | 29 ft | 11 kts | 1° |
| 2026-05-06 18:44 | 27.98460 | -82.53957 | 31 ft | 10 kts | 2° |
| 2026-05-06 18:44 | 27.98557 | -82.53953 | 32 ft | 15 kts | 1° |
| 2026-05-06 18:44 | 27.98665 | -82.53950 | 30 ft | 16 kts | 1° |
| 2026-05-06 18:45 | 27.98785 | -82.53946 | 29 ft | 19 kts | 2° |
| 2026-05-06 18:45 | 27.98912 | -82.53941 | 30 ft | 18 kts | 1° |
| 2026-05-06 18:45 | 27.99035 | -82.53937 | 29 ft | 18 kts | 1° |
| 2026-05-06 18:45 | 27.99165 | -82.53933 | 26 ft | 19 kts | 1° |
| 2026-05-06 18:46 | 27.99293 | -82.53930 | 27 ft | 15 kts | 355° |
| 2026-05-06 18:46 | 27.99340 | -82.54008 | 27 ft | 14 kts | 271° |
| 2026-05-06 18:46 | 27.99325 | -82.54121 | 25 ft | 16 kts | 221° |
| 2026-05-06 18:46 | 27.99112 | -82.54142 | 28 ft | 62 kts | 181° |
| 2026-05-06 18:47 | 27.98464 | -82.54163 | 31 ft | 122 kts | 181° |
| 2026-05-06 18:47 | 27.97449 | -82.54197 | 29 ft | 166 kts | 182° |
| 2026-05-06 18:47 | 27.96275 | -82.54231 | 563 ft | 167 kts | 183° |
| 2026-05-06 18:47 | 27.95137 | -82.54381 | 1252 ft | 165 kts | 194° |
| 2026-05-06 18:48 | 27.94037 | -82.54752 | 1899 ft | 167 kts | 196° |
| 2026-05-06 18:48 | 27.92903 | -82.55293 | 2081 ft | 192 kts | 218° |
| 2026-05-06 18:48 | 27.92107 | -82.56598 | 2233 ft | 217 kts | 250° |
| 2026-05-06 18:48 | 27.92123 | -82.58384 | 2384 ft | 247 kts | 289° |
| 2026-05-06 18:49 | 27.93232 | -82.59952 | 2807 ft | 268 kts | 328° |
| 2026-05-06 18:49 | 27.95024 | -82.60576 | 3568 ft | 275 kts | 356° |
| 2026-05-06 18:49 | 27.96941 | -82.60533 | 4414 ft | 276 kts | 7° |
| 2026-05-06 18:49 | 27.98847 | -82.60236 | 5314 ft | 276 kts | 10° |
| 2026-05-06 18:50 | 28.00751 | -82.59882 | 6169 ft | 278 kts | 10° |
| 2026-05-06 18:50 | 28.02670 | -82.59547 | 6973 ft | 281 kts | 9° |
| 2026-05-06 18:50 | 28.04616 | -82.59249 | 7736 ft | 284 kts | 7° |
| 2026-05-06 18:50 | 28.06585 | -82.58989 | 8499 ft | 286 kts | 6° |
| 2026-05-06 18:51 | 28.08575 | -82.58755 | 9235 ft | 289 kts | 6° |
| 2026-05-06 18:51 | 28.10586 | -82.58540 | 9988 ft | 292 kts | 5° |
| 2026-05-06 18:51 | 28.12653 | -82.58329 | 10357 ft | 308 kts | 5° |
| 2026-05-06 18:51 | 28.14872 | -82.58104 | 10522 ft | 330 kts | 5° |
| 2026-05-06 18:52 | 28.17198 | -82.57867 | 10967 ft | 340 kts | 5° |
| 2026-05-06 18:52 | 28.19565 | -82.57631 | 11622 ft | 343 kts | 2° |
| 2026-05-06 18:52 | 28.21962 | -82.57651 | 12294 ft | 345 kts | 358° |
| 2026-05-06 18:52 | 28.24376 | -82.57723 | 12968 ft | 349 kts | 358° |
| 2026-05-06 18:53 | 28.26811 | -82.57794 | 13636 ft | 351 kts | 358° |
| 2026-05-06 18:53 | 28.29265 | -82.57866 | 14259 ft | 354 kts | 357° |
| 2026-05-06 18:53 | 28.31734 | -82.57940 | 14848 ft | 357 kts | 357° |
| 2026-05-06 18:53 | 28.34227 | -82.58015 | 15420 ft | 360 kts | 357° |
| 2026-05-06 18:54 | 28.36744 | -82.58090 | 15987 ft | 364 kts | 356° |
| 2026-05-06 18:54 | 28.39286 | -82.58159 | 16559 ft | 367 kts | 356° |
| 2026-05-06 18:54 | 28.41853 | -82.58225 | 17114 ft | 370 kts | 356° |
| 2026-05-06 18:54 | 28.44440 | -82.58288 | 17666 ft | 374 kts | 356° |
| 2026-05-06 18:55 | 28.47052 | -82.58355 | 18202 ft | 377 kts | 356° |
| 2026-05-06 18:55 | 28.49694 | -82.58420 | 18688 ft | 380 kts | 356° |
| 2026-05-06 18:55 | 28.52349 | -82.58485 | 19170 ft | 383 kts | 355° |
| 2026-05-06 18:55 | 28.55019 | -82.58550 | 19653 ft | 385 kts | 355° |
| 2026-05-06 18:56 | 28.57705 | -82.58618 | 20128 ft | 387 kts | 355° |
| 2026-05-06 18:56 | 28.60403 | -82.58688 | 20593 ft | 389 kts | 354° |
| 2026-05-06 18:56 | 28.63121 | -82.58759 | 21052 ft | 392 kts | 354° |
| 2026-05-06 18:56 | 28.65855 | -82.58832 | 21515 ft | 394 kts | 354° |
| 2026-05-06 18:57 | 28.68585 | -82.59071 | 21962 ft | 393 kts | 348° |
| 2026-05-06 18:57 | 28.71309 | -82.59448 | 22415 ft | 395 kts | 348° |
| 2026-05-06 18:57 | 28.74043 | -82.59828 | 22893 ft | 397 kts | 348° |
| 2026-05-06 18:57 | 28.76795 | -82.60211 | 23331 ft | 400 kts | 347° |
| 2026-05-06 18:58 | 28.79563 | -82.60598 | 23751 ft | 402 kts | 347° |
| 2026-05-06 18:58 | 28.82346 | -82.60990 | 24121 ft | 404 kts | 347° |
| 2026-05-06 18:58 | 28.85140 | -82.61381 | 24491 ft | 406 kts | 347° |
| 2026-05-06 18:58 | 28.87950 | -82.61774 | 24870 ft | 408 kts | 347° |
| 2026-05-06 18:59 | 28.90774 | -82.62167 | 25238 ft | 410 kts | 347° |
| 2026-05-06 18:59 | 28.93615 | -82.62562 | 25608 ft | 412 kts | 347° |
| 2026-05-06 18:59 | 28.96471 | -82.62960 | 25977 ft | 415 kts | 347° |
| 2026-05-06 18:59 | 28.99341 | -82.63361 | 26353 ft | 417 kts | 347° |
| 2026-05-06 19:00 | 29.02222 | -82.63767 | 26725 ft | 419 kts | 347° |
| 2026-05-06 19:00 | 29.05124 | -82.64174 | 27086 ft | 421 kts | 347° |
| 2026-05-06 19:00 | 29.08039 | -82.64585 | 27445 ft | 423 kts | 347° |
| 2026-05-06 19:00 | 29.09976 | -82.64857 | 27680 ft | 424 kts | 347° |
| 2026-05-06 19:01 | 29.13914 | -82.65411 | 28160 ft | 427 kts | 347° |
| 2026-05-06 19:01 | 29.16872 | -82.65826 | 28507 ft | 429 kts | 347° |
| 2026-05-06 19:01 | 29.19841 | -82.66240 | 28845 ft | 431 kts | 347° |
| 2026-05-06 19:01 | 29.22828 | -82.66656 | 29171 ft | 433 kts | 346° |
| 2026-05-06 19:02 | 29.25832 | -82.67075 | 29509 ft | 435 kts | 346° |
| 2026-05-06 19:02 | 29.28848 | -82.67503 | 29829 ft | 437 kts | 346° |
| 2026-05-06 19:02 | 29.31872 | -82.67932 | 30138 ft | 439 kts | 346° |
| 2026-05-06 19:02 | 29.34910 | -82.68361 | 30429 ft | 441 kts | 346° |
| 2026-05-06 19:03 | 29.37957 | -82.68790 | 30726 ft | 442 kts | 346° |
| 2026-05-06 19:03 | 29.41016 | -82.69211 | 31026 ft | 444 kts | 348° |
| 2026-05-06 19:03 | 29.44126 | -82.69312 | 31429 ft | 448 kts | 353° |
| 2026-05-06 19:03 | 29.47238 | -82.69285 | 31861 ft | 446 kts | 353° |
| 2026-05-06 19:04 | 29.50336 | -82.69261 | 32302 ft | 444 kts | 353° |
| 2026-05-06 19:04 | 29.52382 | -82.69246 | 32592 ft | 443 kts | 353° |
| 2026-05-06 19:04 | 29.55453 | -82.69226 | 33034 ft | 441 kts | 352° |
| 2026-05-06 19:04 | 29.58517 | -82.69208 | 33477 ft | 439 kts | 352° |
| 2026-05-06 19:05 | 29.62549 | -82.69187 | 34057 ft | 436 kts | 352° |
| 2026-05-06 19:05 | 29.65580 | -82.69171 | 34437 ft | 435 kts | 352° |
| 2026-05-06 19:05 | 29.68604 | -82.69156 | 34788 ft | 434 kts | 352° |
| 2026-05-06 19:05 | 29.70638 | -82.69146 | 34983 ft | 434 kts | 352° |
| 2026-05-06 19:06 | 29.73656 | -82.69129 | 35072 ft | 431 kts | 352° |
| 2026-05-06 19:06 | 29.79582 | -82.69080 | 35095 ft | 423 kts | 352° |
| 2026-05-06 19:07 | 29.85461 | -82.69041 | 35095 ft | 422 kts | 352° |
| 2026-05-06 19:07 | 29.91327 | -82.69011 | 35092 ft | 422 kts | 352° |
| 2026-05-06 19:08 | 29.97200 | -82.68972 | 35094 ft | 422 kts | 352° |
| 2026-05-06 19:08 | 30.03065 | -82.68934 | 35097 ft | 422 kts | 351° |
| 2026-05-06 19:09 | 30.08935 | -82.68901 | 35097 ft | 422 kts | 351° |
| 2026-05-06 19:09 | 30.14798 | -82.68864 | 35097 ft | 421 kts | 351° |
| 2026-05-06 19:10 | 30.20665 | -82.68828 | 35099 ft | 422 kts | 351° |
| 2026-05-06 19:10 | 30.26532 | -82.68792 | 35102 ft | 421 kts | 351° |
| 2026-05-06 19:11 | 30.32397 | -82.68762 | 35101 ft | 422 kts | 351° |
| 2026-05-06 19:11 | 30.38270 | -82.68724 | 35103 ft | 422 kts | 351° |
| 2026-05-06 19:12 | 30.44137 | -82.68682 | 35107 ft | 421 kts | 351° |
| 2026-05-06 19:12 | 30.50001 | -82.68646 | 35107 ft | 421 kts | 351° |
| 2026-05-06 19:13 | 30.55894 | -82.68365 | 35102 ft | 426 kts | 355° |
| 2026-05-06 19:13 | 30.61820 | -82.67745 | 35104 ft | 428 kts | 356° |
| 2026-05-06 19:14 | 30.67744 | -82.67093 | 35096 ft | 427 kts | 355° |
| 2026-05-06 19:14 | 30.73661 | -82.66527 | 35084 ft | 426 kts | 354° |
| 2026-05-06 19:15 | 30.79575 | -82.66009 | 35083 ft | 426 kts | 354° |
| 2026-05-06 19:15 | 30.85493 | -82.65487 | 35086 ft | 427 kts | 354° |
| 2026-05-06 19:16 | 30.91413 | -82.64947 | 35092 ft | 426 kts | 354° |
| 2026-05-06 19:16 | 30.97334 | -82.64393 | 35094 ft | 426 kts | 354° |
| 2026-05-06 19:17 | 31.03247 | -82.63844 | 35094 ft | 426 kts | 354° |
| 2026-05-06 19:17 | 31.09157 | -82.63304 | 35091 ft | 426 kts | 354° |
| 2026-05-06 19:18 | 31.15064 | -82.62767 | 35090 ft | 426 kts | 354° |
| 2026-05-06 19:18 | 31.20976 | -82.62220 | 35077 ft | 426 kts | 354° |
| 2026-05-06 19:19 | 31.26893 | -82.61670 | 35072 ft | 426 kts | 354° |
| 2026-05-06 19:19 | 31.32802 | -82.61125 | 35078 ft | 426 kts | 354° |
| 2026-05-06 19:20 | 31.38719 | -82.60576 | 35081 ft | 426 kts | 354° |
| 2026-05-06 19:20 | 31.44626 | -82.60022 | 35082 ft | 426 kts | 354° |
| 2026-05-06 19:21 | 31.50541 | -82.59475 | 35088 ft | 426 kts | 354° |
| 2026-05-06 19:21 | 31.56459 | -82.58930 | 35086 ft | 426 kts | 354° |
| 2026-05-06 19:22 | 31.62376 | -82.58380 | 35088 ft | 427 kts | 354° |
| 2026-05-06 19:22 | 31.68293 | -82.57825 | 35086 ft | 427 kts | 354° |
| 2026-05-06 19:23 | 31.74211 | -82.57275 | 35073 ft | 427 kts | 354° |
| 2026-05-06 19:23 | 31.80137 | -82.56723 | 35071 ft | 427 kts | 354° |
| 2026-05-06 19:24 | 31.86062 | -82.56170 | 35068 ft | 427 kts | 354° |
| 2026-05-06 19:24 | 31.91979 | -82.55737 | 35071 ft | 418 kts | 347° |
| 2026-05-06 19:24 | 31.94805 | -82.56194 | 35068 ft | 404 kts | 336° |
| 2026-05-06 19:25 | 31.97418 | -82.57248 | 35066 ft | 392 kts | 326° |
| 2026-05-06 19:25 | 32.01798 | -82.60757 | 35066 ft | 377 kts | 313° |
| 2026-05-06 19:26 | 32.05764 | -82.64814 | 35053 ft | 378 kts | 313° |
| 2026-05-06 19:26 | 32.09725 | -82.68842 | 35055 ft | 378 kts | 313° |
| 2026-05-06 19:27 | 32.13733 | -82.72926 | 35057 ft | 378 kts | 313° |
| 2026-05-06 19:27 | 32.15747 | -82.74991 | 34869 ft | 390 kts | 313° |
| 2026-05-06 19:27 | 32.17815 | -82.77119 | 34640 ft | 397 kts | 313° |
| 2026-05-06 19:27 | 32.19904 | -82.79261 | 34414 ft | 398 kts | 313° |
| 2026-05-06 19:28 | 32.21995 | -82.81399 | 34190 ft | 398 kts | 313° |
| 2026-05-06 19:28 | 32.24086 | -82.83535 | 33950 ft | 397 kts | 313° |
| 2026-05-06 19:28 | 32.26170 | -82.85667 | 33689 ft | 396 kts | 313° |
| 2026-05-06 19:28 | 32.28248 | -82.87795 | 33432 ft | 395 kts | 313° |
| 2026-05-06 19:29 | 32.30320 | -82.89921 | 33177 ft | 393 kts | 313° |
| 2026-05-06 19:29 | 32.32372 | -82.92029 | 32734 ft | 388 kts | 313° |
| 2026-05-06 19:29 | 32.34400 | -82.94113 | 32233 ft | 384 kts | 313° |
| 2026-05-06 19:29 | 32.36381 | -82.96150 | 31729 ft | 381 kts | 313° |
| 2026-05-06 19:30 | 32.38374 | -82.98205 | 31150 ft | 380 kts | 313° |
| 2026-05-06 19:30 | 32.40367 | -83.00261 | 30587 ft | 379 kts | 314° |
| 2026-05-06 19:30 | 32.42352 | -83.02309 | 30015 ft | 379 kts | 314° |
| 2026-05-06 19:30 | 32.44337 | -83.04354 | 29413 ft | 377 kts | 314° |
| 2026-05-06 19:31 | 32.46308 | -83.06383 | 28867 ft | 374 kts | 314° |
| 2026-05-06 19:31 | 32.48261 | -83.08395 | 28326 ft | 371 kts | 314° |
| 2026-05-06 19:31 | 32.52150 | -83.12404 | 27267 ft | 365 kts | 313° |
| 2026-05-06 19:32 | 32.54060 | -83.14373 | 26770 ft | 362 kts | 313° |
| 2026-05-06 19:32 | 32.55953 | -83.16324 | 26280 ft | 359 kts | 313° |
| 2026-05-06 19:32 | 32.57829 | -83.18260 | 25793 ft | 356 kts | 313° |
| 2026-05-06 19:32 | 32.59690 | -83.20182 | 25327 ft | 353 kts | 313° |
| 2026-05-06 19:33 | 32.61534 | -83.22091 | 24863 ft | 350 kts | 313° |
| 2026-05-06 19:33 | 32.63357 | -83.23983 | 24424 ft | 347 kts | 313° |
| 2026-05-06 19:33 | 32.65169 | -83.25867 | 23970 ft | 345 kts | 313° |
| 2026-05-06 19:33 | 32.66964 | -83.27738 | 23510 ft | 342 kts | 313° |
| 2026-05-06 19:34 | 32.68746 | -83.29595 | 23027 ft | 339 kts | 313° |
| 2026-05-06 19:34 | 32.70486 | -83.31403 | 22594 ft | 335 kts | 313° |
| 2026-05-06 19:34 | 32.72228 | -83.33212 | 22166 ft | 331 kts | 313° |
| 2026-05-06 19:34 | 32.73950 | -83.35000 | 21744 ft | 327 kts | 313° |
| 2026-05-06 19:35 | 32.75653 | -83.36771 | 21325 ft | 324 kts | 313° |
| 2026-05-06 19:35 | 32.77339 | -83.38528 | 20894 ft | 321 kts | 313° |
| 2026-05-06 19:35 | 32.79011 | -83.40272 | 20468 ft | 319 kts | 313° |
| 2026-05-06 19:35 | 32.80671 | -83.42003 | 20041 ft | 317 kts | 313° |
| 2026-05-06 19:36 | 32.82321 | -83.43727 | 19628 ft | 314 kts | 313° |
| 2026-05-06 19:36 | 32.83959 | -83.45438 | 19196 ft | 313 kts | 313° |
| 2026-05-06 19:36 | 32.85588 | -83.47142 | 18790 ft | 311 kts | 313° |
| 2026-05-06 19:36 | 32.87210 | -83.48839 | 18379 ft | 310 kts | 313° |
| 2026-05-06 19:37 | 32.88830 | -83.50532 | 17919 ft | 309 kts | 313° |
| 2026-05-06 19:37 | 32.90439 | -83.52214 | 17470 ft | 307 kts | 313° |
| 2026-05-06 19:37 | 32.92039 | -83.53892 | 17065 ft | 305 kts | 312° |
| 2026-05-06 19:37 | 32.93110 | -83.55014 | 16789 ft | 304 kts | 312° |
| 2026-05-06 19:38 | 32.95202 | -83.57209 | 16276 ft | 301 kts | 312° |
| 2026-05-06 19:38 | 32.96772 | -83.58853 | 15899 ft | 300 kts | 312° |
| 2026-05-06 19:38 | 32.98332 | -83.60487 | 15507 ft | 298 kts | 312° |
| 2026-05-06 19:38 | 32.99884 | -83.62112 | 15126 ft | 297 kts | 312° |
| 2026-05-06 19:39 | 33.01430 | -83.63734 | 14746 ft | 296 kts | 312° |
| 2026-05-06 19:39 | 33.02972 | -83.65354 | 14365 ft | 295 kts | 312° |
| 2026-05-06 19:39 | 33.04511 | -83.66970 | 13984 ft | 295 kts | 312° |
| 2026-05-06 19:39 | 33.06049 | -83.68585 | 13581 ft | 294 kts | 312° |
| 2026-05-06 19:40 | 33.07601 | -83.70219 | 13181 ft | 293 kts | 312° |
| 2026-05-06 19:40 | 33.09128 | -83.71823 | 12799 ft | 292 kts | 312° |
| 2026-05-06 19:40 | 33.10640 | -83.73409 | 12615 ft | 287 kts | 312° |
| 2026-05-06 19:40 | 33.12139 | -83.74983 | 12512 ft | 287 kts | 312° |
| 2026-05-06 19:41 | 33.13615 | -83.76535 | 12393 ft | 286 kts | 312° |
| 2026-05-06 19:41 | 33.14623 | -83.77596 | 12260 ft | 287 kts | 311° |
| 2026-05-06 19:41 | 33.16123 | -83.79181 | 11798 ft | 288 kts | 312° |
| 2026-05-06 19:41 | 33.17619 | -83.80764 | 11399 ft | 287 kts | 311° |
| 2026-05-06 19:42 | 33.19108 | -83.82338 | 11043 ft | 285 kts | 311° |
| 2026-05-06 19:42 | 33.20997 | -83.84473 | 10448 ft | 278 kts | 309° |
| 2026-05-06 19:42 | 33.21919 | -83.85572 | 10177 ft | 277 kts | 308° |
| 2026-05-06 19:42 | 33.23269 | -83.87203 | 9771 ft | 275 kts | 308° |
| 2026-05-06 19:43 | 33.24605 | -83.88825 | 9365 ft | 273 kts | 308° |
| 2026-05-06 19:43 | 33.25935 | -83.90440 | 8971 ft | 273 kts | 309° |
| 2026-05-06 19:43 | 33.27270 | -83.92050 | 8581 ft | 271 kts | 309° |
| 2026-05-06 19:43 | 33.28597 | -83.93640 | 8201 ft | 270 kts | 309° |
| 2026-05-06 19:44 | 33.29919 | -83.95220 | 7878 ft | 267 kts | 309° |
| 2026-05-06 19:44 | 33.31226 | -83.96784 | 7934 ft | 267 kts | 310° |
| 2026-05-06 19:44 | 33.32750 | -83.98107 | 7982 ft | 279 kts | 332° |
| 2026-05-06 19:44 | 33.34650 | -83.98709 | 7997 ft | 285 kts | 343° |
| 2026-05-06 19:45 | 33.36608 | -83.99129 | 7998 ft | 286 kts | 344° |
| 2026-05-06 19:45 | 33.38573 | -83.99533 | 7981 ft | 286 kts | 344° |
| 2026-05-06 19:45 | 33.40539 | -83.99929 | 7978 ft | 286 kts | 344° |
| 2026-05-06 19:45 | 33.42503 | -84.00318 | 7924 ft | 287 kts | 344° |
| 2026-05-06 19:46 | 33.44448 | -84.00705 | 7737 ft | 277 kts | 344° |
| 2026-05-06 19:46 | 33.46331 | -84.01077 | 7566 ft | 273 kts | 344° |
| 2026-05-06 19:46 | 33.48204 | -84.01442 | 7388 ft | 272 kts | 344° |
| 2026-05-06 19:46 | 33.50071 | -84.01813 | 7152 ft | 271 kts | 344° |
| 2026-05-06 19:47 | 33.51926 | -84.02189 | 6909 ft | 269 kts | 344° |
| 2026-05-06 19:47 | 33.53767 | -84.02559 | 6705 ft | 268 kts | 344° |
| 2026-05-06 19:47 | 33.55602 | -84.02935 | 6594 ft | 268 kts | 344° |
| 2026-05-06 19:47 | 33.57442 | -84.03314 | 6476 ft | 268 kts | 344° |
| 2026-05-06 19:48 | 33.59243 | -84.03810 | 6349 ft | 262 kts | 333° |
| 2026-05-06 19:48 | 33.60812 | -84.04842 | 6231 ft | 254 kts | 316° |
| 2026-05-06 19:48 | 33.62025 | -84.06331 | 6105 ft | 247 kts | 300° |
| 2026-05-06 19:48 | 33.62813 | -84.08134 | 5985 ft | 242 kts | 285° |
| 2026-05-06 19:49 | 33.63132 | -84.10094 | 5889 ft | 239 kts | 270° |
| 2026-05-06 19:49 | 33.63147 | -84.12091 | 5672 ft | 239 kts | 268° |
| 2026-05-06 19:49 | 33.63147 | -84.14089 | 5400 ft | 239 kts | 268° |
| 2026-05-06 19:49 | 33.63152 | -84.16063 | 5101 ft | 234 kts | 267° |
| 2026-05-06 19:50 | 33.63158 | -84.17984 | 4839 ft | 225 kts | 268° |
| 2026-05-06 19:50 | 33.63162 | -84.19829 | 4523 ft | 218 kts | 267° |
| 2026-05-06 19:50 | 33.63165 | -84.21612 | 4238 ft | 210 kts | 267° |
| 2026-05-06 19:50 | 33.63168 | -84.23344 | 3983 ft | 203 kts | 267° |
| 2026-05-06 19:51 | 33.63170 | -84.25003 | 3724 ft | 194 kts | 266° |
| 2026-05-06 19:51 | 33.63174 | -84.26541 | 3477 ft | 175 kts | 266° |
| 2026-05-06 19:51 | 33.63175 | -84.27960 | 3260 ft | 166 kts | 265° |
| 2026-05-06 19:51 | 33.63176 | -84.29334 | 3050 ft | 163 kts | 265° |
| 2026-05-06 19:52 | 33.63177 | -84.30692 | 2837 ft | 162 kts | 265° |
| 2026-05-06 19:52 | 33.63177 | -84.32039 | 2638 ft | 161 kts | 265° |
| 2026-05-06 19:52 | 33.63179 | -84.33385 | 2429 ft | 158 kts | 266° |
| 2026-05-06 19:52 | 33.63181 | -84.34623 | 2236 ft | 141 kts | 264° |
| 2026-05-06 19:53 | 33.63181 | -84.35776 | 2045 ft | 136 kts | 265° |
| 2026-05-06 19:53 | 33.63181 | -84.36904 | 1870 ft | 134 kts | 265° |
| 2026-05-06 19:53 | 33.63188 | -84.38021 | 1702 ft | 133 kts | 263° |
| 2026-05-06 19:53 | 33.63192 | -84.39130 | 1503 ft | 133 kts | 264° |
| 2026-05-06 19:54 | 33.63187 | -84.40242 | 1314 ft | 133 kts | 264° |
| 2026-05-06 19:54 | 33.63190 | -84.41343 | 1134 ft | 132 kts | 264° |
| 2026-05-06 19:54 | 33.63184 | -84.42432 | 1008 ft | 124 kts | 267° |
| 2026-05-06 19:54 | 33.63182 | -84.43284 | 1008 ft | 64 kts | 270° |
| 2026-05-06 19:55 | 33.63202 | -84.43535 | 1008 ft | 17 kts | 284° |
| 2026-05-06 19:55 | 33.63246 | -84.43669 | 1007 ft | 17 kts | 298° |
| 2026-05-06 19:55 | 33.63312 | -84.43735 | 1006 ft | 10 kts | 0° |
| 2026-05-06 19:55 | 33.63361 | -84.43656 | 1006 ft | 14 kts | 79° |
| 2026-05-06 19:56 | 33.63437 | -84.43606 | 1006 ft | 13 kts | 360° |
| 2026-05-06 19:56 | 33.63527 | -84.43606 | 1006 ft | 13 kts | 1° |
| 2026-05-06 19:56 | 33.63580 | -84.43539 | 1006 ft | 12 kts | 85° |
| 2026-05-06 19:56 | 33.63581 | -84.43439 | 1006 ft | 13 kts | 90° |
| 2026-05-06 19:57 | 33.63581 | -84.43279 | 1006 ft | 23 kts | 90° |
| 2026-05-06 19:57 | 33.63581 | -84.43092 | 1006 ft | 22 kts | 90° |
| 2026-05-06 19:57 | 33.63581 | -84.42911 | 1006 ft | 22 kts | 90° |
| 2026-05-06 19:57 | 33.63608 | -84.42778 | 1006 ft | 15 kts | 33° |
| 2026-05-06 19:58 | 33.63702 | -84.42790 | 1006 ft | 13 kts | 344° |
| 2026-05-06 19:58 | 33.63787 | -84.42813 | 1006 ft | 11 kts | 327° |
| 2026-05-06 19:58 | 33.63807 | -84.42870 | 1007 ft | 2 kts | 286° |
| 2026-05-06 19:58 | 33.63809 | -84.42877 | 1006 ft | 0 kts | 287° |